createdAt,value
2023-05-20T00:02:20.439Z,18.98
2023-05-20T00:04:47.602Z,27.52
2023-05-20T00:07:14.821Z,21.02
2023-05-20T00:09:41.894Z,25.10
2023-05-20T00:12:08.753Z,23.63
2023-05-20T00:14:35.920Z,26.20
2023-05-20T00:17:03.548Z,23.20
2023-05-20T00:19:30.970Z,21.25
2023-05-20T00:21:58.375Z,24.50
2023-05-20T00:24:25.659Z,22.45
2023-05-20T00:26:52.613Z,21.33
2023-05-20T00:29:21.678Z,22.60
2023-05-20T00:31:48.788Z,27.88
2023-05-20T00:34:15.888Z,27.17
2023-05-20T00:36:43.120Z,28.75
2023-05-20T00:39:10.111Z,33.45
2023-05-20T00:41:37.176Z,24.25
2023-05-20T00:44:04.275Z,26.23
2023-05-20T00:46:31.694Z,22.05
2023-05-20T00:48:59.016Z,26.25
2023-05-20T00:51:26.272Z,28.42
2023-05-20T00:53:54.183Z,26.15
2023-05-20T00:56:22.280Z,22.73
2023-05-20T00:58:54.177Z,29.83
2023-05-20T01:01:21.195Z,24.02
2023-05-20T01:03:49.008Z,23.52
2023-05-20T01:06:16.281Z,26.88
2023-05-20T01:08:43.386Z,27.63
2023-05-20T01:11:31.508Z,26.02
2023-05-20T01:14:04.065Z,30.55
2023-05-20T01:16:34.140Z,29.15
2023-05-20T01:19:04.065Z,24.92
2023-05-20T01:21:32.479Z,28.60
2023-05-20T01:24:01.807Z,35.33
2023-05-20T01:26:28.882Z,27.65
2023-05-20T01:28:57.989Z,37.53
2023-05-20T01:31:29.844Z,34.58
2023-05-20T01:33:58.498Z,30.40
2023-05-20T01:36:27.715Z,30.98
2023-05-20T01:38:56.175Z,33.50
2023-05-20T01:41:25.494Z,30.63
2023-05-20T01:43:52.694Z,27.10
2023-05-20T01:46:19.741Z,32.88
2023-05-20T01:48:46.706Z,31.60
2023-05-20T01:51:13.551Z,27.05
2023-05-20T01:53:40.410Z,31.70
2023-05-20T01:56:07.495Z,25.15
2023-05-20T01:58:34.641Z,28.73
2023-05-20T02:01:02.151Z,27.75
2023-05-20T02:03:29.303Z,27.75
2023-05-20T02:05:56.470Z,29.42
2023-05-20T02:08:23.812Z,30.13
2023-05-20T02:10:51.701Z,32.25
2023-05-20T02:13:18.653Z,28.55
2023-05-20T02:15:45.847Z,21.88
2023-05-20T02:18:14.228Z,28.35
2023-05-20T02:20:42.700Z,23.98
2023-05-20T02:23:09.734Z,31.27
2023-05-20T02:25:36.831Z,24.15
2023-05-20T02:28:06.060Z,32.45
2023-05-20T02:30:33.076Z,21.33
2023-05-20T02:33:00.156Z,24.17
2023-05-20T02:35:27.073Z,21.98
2023-05-20T02:37:54.055Z,26.05
2023-05-20T02:40:21.249Z,23.30
2023-05-20T02:42:48.340Z,22.48
2023-05-20T02:45:15.599Z,18.90
2023-05-20T02:47:43.498Z,23.52
2023-05-20T02:50:11.371Z,22.80
2023-05-20T02:52:40.314Z,19.98
2023-05-20T02:55:07.976Z,17.33
2023-05-20T02:57:38.228Z,20.85
2023-05-20T03:00:13.317Z,24.48
2023-05-20T03:02:40.430Z,24.88
2023-05-20T03:05:08.085Z,18.08
2023-05-20T03:07:36.583Z,21.13
2023-05-20T03:10:04.978Z,24.55
2023-05-20T03:12:32.140Z,22.45
2023-05-20T03:15:00.425Z,17.65
2023-05-20T03:17:27.542Z,17.10
2023-05-20T03:20:00.309Z,22.33
2023-05-20T03:22:27.384Z,18.98
2023-05-20T03:24:54.362Z,17.38
2023-05-20T03:27:21.588Z,24.13
2023-05-20T03:29:48.611Z,16.15
2023-05-20T03:32:15.594Z,18.30
2023-05-20T03:34:42.572Z,30.65
2023-05-20T03:37:09.464Z,18.50
2023-05-20T03:39:36.464Z,18.95
2023-05-20T03:42:03.477Z,15.95
2023-05-20T03:44:30.706Z,19.50
2023-05-20T03:46:57.813Z,15.38
2023-05-20T03:49:24.800Z,17.17
2023-05-20T03:51:51.717Z,17.85
2023-05-20T03:54:18.736Z,20.48
2023-05-20T03:56:47.080Z,17.17
2023-05-20T03:59:13.987Z,18.70
2023-05-20T04:01:40.926Z,16.92
2023-05-20T04:04:07.833Z,15.48
2023-05-20T04:06:34.824Z,14.95
2023-05-20T04:09:01.781Z,18.08
2023-05-20T04:11:28.684Z,17.70
2023-05-20T04:13:55.774Z,14.65
2023-05-20T04:16:22.759Z,21.10
2023-05-20T04:18:50.808Z,13.98
2023-05-20T04:21:19.165Z,13.23
2023-05-20T04:23:46.297Z,14.13
2023-05-20T04:26:13.592Z,17.08
2023-05-20T04:28:42.173Z,18.17
2023-05-20T04:31:10.705Z,14.23
2023-05-20T04:33:38.752Z,15.52
2023-05-20T04:36:07.929Z,16.80
2023-05-20T04:38:36.159Z,13.95
2023-05-20T04:41:03.186Z,15.80
2023-05-20T04:43:31.485Z,16.42
2023-05-20T04:45:59.870Z,20.60
2023-05-20T04:48:27.319Z,17.58
2023-05-20T04:50:54.591Z,18.70
2023-05-20T04:53:24.785Z,17.05
2023-05-20T04:55:56.979Z,12.10
2023-05-20T04:58:25.181Z,14.38
2023-05-20T05:00:53.383Z,18.55
2023-05-20T05:03:20.548Z,14.90
2023-05-20T05:05:47.764Z,15.82
2023-05-20T05:08:15.260Z,16.00
2023-05-20T05:10:42.347Z,15.23
2023-05-20T05:13:09.424Z,15.43
2023-05-20T05:15:36.911Z,11.13
2023-05-20T05:18:04.376Z,15.15
2023-05-20T05:20:31.470Z,20.17
2023-05-20T05:22:58.386Z,11.48
2023-05-20T05:25:25.879Z,14.88
2023-05-20T05:27:53.186Z,12.30
2023-05-20T05:30:22.057Z,13.77
2023-05-20T05:32:49.145Z,14.35
2023-05-20T05:35:16.125Z,14.40
2023-05-20T05:37:43.013Z,14.32
2023-05-20T05:40:11.077Z,11.65
2023-05-20T05:42:38.137Z,19.25
2023-05-20T05:45:05.545Z,15.32
2023-05-20T05:47:33.015Z,12.45
2023-05-20T05:50:00.167Z,15.23
2023-05-20T05:52:28.024Z,16.85
2023-05-20T05:54:55.691Z,11.95
2023-05-20T05:57:22.769Z,15.15
2023-05-20T05:59:50.987Z,17.13
2023-05-20T06:02:18.798Z,18.83
2023-05-20T06:04:46.158Z,13.30
2023-05-20T06:07:13.236Z,10.32
2023-05-20T06:09:40.599Z,12.52
2023-05-20T06:12:07.953Z,15.18
2023-05-20T06:14:35.062Z,11.70
2023-05-20T06:17:02.998Z,17.70
2023-05-20T06:19:30.143Z,12.60
2023-05-20T06:21:58.846Z,13.68
2023-05-20T06:24:26.690Z,14.35
2023-05-20T06:26:53.638Z,12.98
2023-05-20T06:29:20.886Z,14.90
2023-05-20T06:31:47.859Z,12.68
2023-05-20T06:34:14.954Z,10.50
2023-05-20T06:36:41.923Z,13.25
2023-05-20T06:39:12.581Z,10.13
2023-05-20T06:41:40.281Z,18.20
2023-05-20T06:44:07.906Z,17.77
2023-05-20T06:46:35.327Z,17.05
2023-05-20T06:49:03.247Z,12.13
2023-05-20T06:51:30.399Z,11.60
2023-05-20T06:53:57.386Z,8.07
2023-05-20T06:56:24.338Z,9.40
2023-05-20T06:58:52.885Z,11.85
2023-05-20T07:01:20.238Z,15.77
2023-05-20T07:03:47.649Z,11.73
2023-05-20T07:06:14.747Z,11.55
2023-05-20T07:08:41.819Z,13.52
2023-05-20T07:11:09.156Z,11.25
2023-05-20T07:13:36.348Z,11.45
2023-05-20T07:16:04.421Z,8.85
2023-05-20T07:18:31.681Z,13.85
2023-05-20T07:20:58.603Z,12.90
2023-05-20T07:23:25.774Z,9.50
2023-05-20T07:25:54.166Z,14.85
2023-05-20T07:28:21.600Z,10.43
2023-05-20T07:30:50.574Z,11.57
2023-05-20T07:33:18.408Z,12.20
2023-05-20T07:35:45.818Z,9.88
2023-05-20T07:38:13.580Z,12.18
2023-05-20T07:40:41.515Z,13.32
2023-05-20T07:43:09.551Z,17.02
2023-05-20T07:45:38.170Z,10.85
2023-05-20T07:48:05.903Z,9.63
2023-05-20T07:50:34.303Z,11.50
2023-05-20T07:53:01.473Z,7.65
2023-05-20T07:55:28.717Z,9.80
2023-05-20T07:57:56.384Z,13.60
2023-05-20T08:00:24.348Z,9.63
2023-05-20T08:02:51.740Z,10.57
2023-05-20T08:05:19.161Z,10.43
2023-05-20T08:07:46.649Z,8.93
2023-05-20T08:10:13.730Z,14.23
2023-05-20T08:12:41.294Z,12.68
2023-05-20T08:15:09.130Z,13.35
2023-05-20T08:17:36.280Z,9.73
2023-05-20T08:20:03.334Z,7.55
2023-05-20T08:22:30.260Z,9.63
2023-05-20T08:24:57.138Z,8.90
2023-05-20T08:27:24.118Z,8.98
2023-05-20T08:29:51.139Z,9.25
2023-05-20T08:32:18.363Z,7.43
2023-05-20T08:34:45.250Z,14.02
2023-05-20T08:37:12.384Z,10.10
2023-05-20T08:39:39.535Z,10.82
2023-05-20T08:42:08.146Z,8.30
2023-05-20T08:44:36.125Z,7.88
2023-05-20T08:47:05.342Z,10.10
2023-05-20T08:49:32.514Z,10.73
2023-05-20T08:52:01.655Z,11.85
2023-05-20T08:54:43.775Z,11.18
2023-05-20T08:57:14.137Z,8.52
2023-05-20T08:59:46.952Z,7.60
2023-05-20T09:02:14.504Z,5.88
2023-05-20T09:04:42.185Z,8.43
2023-05-20T09:07:09.310Z,7.90
2023-05-20T09:09:36.781Z,6.57
2023-05-20T09:12:04.001Z,8.38
2023-05-20T09:14:32.057Z,6.28
2023-05-20T09:16:59.477Z,11.02
2023-05-20T09:19:26.857Z,10.18
2023-05-20T09:21:55.221Z,8.98
2023-05-20T09:24:26.787Z,7.88
2023-05-20T09:26:54.307Z,8.88
2023-05-20T09:29:21.899Z,7.68
2023-05-20T09:31:50.348Z,13.10
2023-05-20T09:34:17.898Z,7.70
2023-05-20T09:36:45.383Z,7.43
2023-05-20T09:39:20.964Z,12.15
2023-05-20T09:42:28.965Z,5.63
2023-05-20T09:44:59.021Z,6.50
2023-05-20T09:47:27.189Z,6.18
2023-05-20T09:49:54.657Z,8.23
2023-05-20T09:52:22.444Z,9.90
2023-05-20T09:54:51.410Z,5.68
2023-05-20T09:57:18.603Z,14.75
2023-05-20T09:59:47.281Z,11.57
2023-05-20T10:02:14.773Z,7.47
2023-05-20T10:04:45.361Z,6.25
2023-05-20T10:07:46.576Z,13.27
2023-05-20T10:10:36.696Z,16.65
2023-05-20T10:13:21.458Z,6.40
2023-05-20T10:15:51.392Z,11.43
2023-05-20T10:18:45.710Z,7.22
2023-05-20T10:21:24.749Z,11.15
2023-05-20T10:23:52.593Z,8.35
2023-05-20T10:26:19.895Z,9.88
2023-05-20T10:28:47.601Z,6.20
2023-05-20T10:31:21.162Z,11.60
2023-05-20T10:33:49.142Z,7.97
2023-05-20T10:36:31.539Z,6.75
2023-05-20T10:38:59.557Z,4.43
2023-05-20T10:41:30.761Z,10.57
2023-05-20T10:44:05.032Z,5.53
2023-05-20T10:46:46.329Z,6.13
2023-05-20T10:49:22.290Z,7.68
2023-05-20T10:51:51.694Z,6.30
2023-05-20T10:54:18.900Z,6.55
2023-05-20T10:56:53.775Z,7.65
2023-05-20T10:59:22.199Z,4.68
2023-05-20T11:01:49.678Z,8.77
2023-05-20T11:04:19.980Z,5.30
2023-05-20T11:06:54.214Z,6.20
2023-05-20T11:09:22.031Z,6.30
2023-05-20T11:11:50.887Z,7.38
2023-05-20T11:14:20.122Z,9.95
2023-05-20T11:16:51.185Z,4.57
2023-05-20T11:19:19.249Z,7.90
2023-05-20T11:21:47.335Z,7.55
2023-05-20T11:24:14.532Z,5.93
2023-05-20T11:26:41.693Z,7.30
2023-05-20T11:29:08.751Z,13.07
2023-05-20T11:31:39.238Z,13.32
2023-05-20T11:34:06.489Z,7.55
2023-05-20T11:36:33.535Z,7.22
2023-05-20T11:39:01.118Z,6.10
2023-05-20T11:41:29.299Z,9.13
2023-05-20T11:44:00.095Z,8.95
2023-05-20T11:46:28.227Z,6.32
2023-05-20T11:48:56.451Z,7.75
2023-05-20T11:51:30.597Z,10.38
2023-05-20T11:54:02.692Z,6.95
2023-05-20T11:56:34.900Z,5.90
2023-05-20T11:59:03.083Z,9.43
2023-05-20T12:01:55.142Z,7.63
2023-05-20T12:04:22.485Z,4.72
2023-05-20T12:06:49.590Z,9.02
2023-05-20T12:09:16.537Z,9.02
2023-05-20T12:11:45.113Z,7.10
2023-05-20T12:14:12.502Z,6.30
2023-05-20T12:16:40.358Z,4.30
2023-05-20T12:19:08.853Z,5.22
2023-05-20T12:21:35.876Z,8.68
2023-05-20T12:24:05.437Z,7.07
2023-05-20T12:26:33.173Z,4.78
2023-05-20T12:29:00.050Z,6.13
2023-05-20T12:31:27.855Z,9.85
2023-05-20T12:33:54.937Z,6.60
2023-05-20T12:36:22.024Z,6.32
2023-05-20T12:38:49.803Z,4.93
2023-05-20T12:41:16.814Z,8.27
2023-05-20T12:43:43.816Z,5.65
2023-05-20T12:46:11.535Z,11.05
2023-05-20T12:48:39.145Z,8.55
2023-05-20T12:51:07.421Z,7.13
2023-05-20T12:53:34.451Z,10.30
2023-05-20T12:56:01.437Z,6.65
2023-05-20T12:58:28.818Z,6.57
2023-05-20T13:00:57.056Z,4.95
2023-05-20T13:03:23.974Z,3.85
2023-05-20T13:05:51.194Z,4.45
2023-05-20T13:08:18.082Z,8.15
2023-05-20T13:10:45.124Z,9.43
2023-05-20T13:13:13.860Z,4.78
2023-05-20T13:15:42.451Z,3.95
2023-05-20T13:18:10.412Z,3.53
2023-05-20T13:20:37.510Z,7.25
2023-05-20T13:23:04.888Z,6.32
2023-05-20T13:25:32.173Z,5.25
2023-05-20T13:27:59.109Z,4.43
2023-05-20T13:30:26.807Z,3.75
2023-05-20T13:32:53.727Z,4.43
2023-05-20T13:35:21.165Z,6.47
2023-05-20T13:37:48.220Z,7.72
2023-05-20T13:40:15.492Z,11.88
2023-05-20T13:42:42.705Z,7.97
2023-05-20T13:45:10.076Z,6.32
2023-05-20T13:47:37.247Z,6.18
2023-05-20T13:50:04.650Z,7.47
2023-05-20T13:52:31.656Z,5.72
2023-05-20T13:54:58.780Z,7.15
2023-05-20T13:57:25.751Z,6.80
2023-05-20T13:59:52.753Z,4.93
2023-05-20T14:02:19.692Z,5.90
2023-05-20T14:04:47.196Z,6.03
2023-05-20T14:07:14.369Z,4.90
2023-05-20T14:09:41.292Z,9.68
2023-05-20T14:12:08.281Z,6.60
2023-05-20T14:14:35.410Z,7.18
2023-05-20T14:17:02.293Z,4.80
2023-05-20T14:19:30.245Z,3.47
2023-05-20T14:21:59.930Z,5.22
2023-05-20T14:24:27.265Z,4.20
2023-05-20T14:26:54.261Z,10.32
2023-05-20T14:29:21.296Z,6.57
2023-05-20T14:31:48.461Z,8.13
2023-05-20T14:34:15.794Z,3.70
2023-05-20T14:36:44.711Z,6.60
2023-05-20T14:39:11.801Z,7.18
2023-05-20T14:41:38.664Z,5.32
2023-05-20T14:44:05.842Z,5.50
2023-05-20T14:46:32.893Z,7.13
2023-05-20T14:49:00.547Z,8.07
2023-05-20T14:51:27.758Z,7.88
2023-05-20T14:53:54.829Z,7.22
2023-05-20T14:56:22.769Z,6.63
2023-05-20T14:58:49.896Z,7.82
2023-05-20T15:01:17.619Z,6.07
2023-05-20T15:03:44.578Z,5.38
2023-05-20T15:06:11.544Z,7.53
2023-05-20T15:08:38.388Z,6.88
2023-05-20T15:11:05.486Z,7.13
2023-05-20T15:13:32.634Z,9.20
2023-05-20T15:15:59.766Z,8.82
2023-05-20T15:18:27.224Z,6.07
2023-05-20T15:20:54.164Z,4.57
2023-05-20T15:23:21.528Z,10.35
2023-05-20T15:25:50.361Z,9.55
2023-05-20T15:28:19.826Z,10.25
2023-05-20T15:30:51.601Z,5.78
2023-05-20T15:33:22.524Z,8.55
2023-05-20T15:35:49.734Z,5.72
2023-05-20T15:38:17.610Z,6.97
2023-05-20T15:40:44.598Z,6.93
2023-05-20T15:43:11.684Z,5.70
2023-05-20T15:45:38.640Z,5.90
2023-05-20T15:48:06.584Z,7.78
2023-05-20T15:50:35.319Z,5.18
2023-05-20T15:53:02.630Z,8.10
2023-05-20T15:55:30.470Z,10.77
2023-05-20T15:57:59.191Z,5.03
2023-05-20T16:00:26.101Z,10.13
2023-05-20T16:02:55.029Z,8.18
2023-05-20T16:05:25.839Z,8.88
2023-05-20T16:07:53.535Z,6.60
2023-05-20T16:10:20.650Z,6.43
2023-05-20T16:12:47.642Z,8.90
2023-05-20T16:15:14.898Z,5.03
2023-05-20T16:17:41.917Z,14.55
2023-05-20T16:20:09.362Z,7.47
2023-05-20T16:22:36.873Z,8.52
2023-05-20T16:25:04.419Z,6.78
2023-05-20T16:27:32.504Z,8.88
2023-05-20T16:29:59.387Z,4.97
2023-05-20T16:32:27.218Z,5.75
2023-05-20T16:34:54.982Z,7.18
2023-05-20T16:37:22.051Z,6.93
2023-05-20T16:39:49.196Z,7.03
2023-05-20T16:42:16.379Z,7.38
2023-05-20T16:44:43.237Z,5.60
2023-05-20T16:47:10.996Z,7.40
2023-05-20T16:49:38.107Z,6.22
2023-05-20T16:52:05.874Z,4.70
2023-05-20T16:54:36.438Z,6.43
2023-05-20T16:57:04.650Z,3.83
2023-05-20T16:59:36.405Z,5.93
2023-05-20T17:02:03.557Z,8.80
2023-05-20T17:04:30.800Z,5.10
2023-05-20T17:06:57.915Z,6.47
2023-05-20T17:09:24.877Z,5.38
2023-05-20T17:11:52.990Z,7.00
2023-05-20T17:14:20.220Z,6.60
2023-05-20T17:16:47.317Z,7.38
2023-05-20T17:19:14.432Z,10.32
2023-05-20T17:21:41.382Z,5.13
2023-05-20T17:24:08.284Z,4.88
2023-05-20T17:26:35.540Z,7.05
2023-05-20T17:29:02.433Z,3.67
2023-05-20T17:31:29.612Z,7.85
2023-05-20T17:33:56.646Z,6.35
2023-05-20T17:36:23.815Z,7.95
2023-05-20T17:38:52.382Z,5.18
2023-05-20T17:41:19.652Z,10.30
2023-05-20T17:43:46.995Z,5.25
2023-05-20T17:46:14.948Z,11.50
2023-05-20T17:48:41.909Z,6.22
2023-05-20T17:51:08.888Z,4.57
2023-05-20T17:53:36.000Z,6.68
2023-05-20T17:56:03.335Z,5.80
2023-05-20T17:58:31.572Z,7.53
2023-05-20T18:00:58.821Z,4.80
2023-05-20T18:03:27.916Z,4.57
2023-05-20T18:05:58.329Z,6.43
2023-05-20T18:08:28.507Z,6.07
2023-05-20T18:10:55.751Z,4.95
2023-05-20T18:13:22.572Z,12.70
2023-05-20T18:15:50.250Z,7.07
2023-05-20T18:18:17.117Z,6.57
2023-05-20T18:20:44.017Z,5.55
2023-05-20T18:23:11.078Z,4.30
2023-05-20T18:25:39.475Z,7.82
2023-05-20T18:28:08.918Z,13.48
2023-05-20T18:30:36.275Z,8.05
2023-05-20T18:33:03.545Z,8.65
2023-05-20T18:35:30.870Z,16.73
2023-05-20T18:37:58.525Z,10.75
2023-05-20T18:40:26.151Z,14.70
2023-05-20T18:42:53.459Z,10.15
2023-05-20T18:45:21.919Z,10.15
2023-05-20T18:47:48.932Z,11.02
2023-05-20T18:50:16.317Z,8.85
2023-05-20T18:52:43.586Z,10.23
2023-05-20T18:55:11.675Z,8.73
2023-05-20T18:57:38.759Z,13.55
2023-05-20T19:00:12.762Z,10.88
2023-05-20T19:02:40.741Z,15.43
2023-05-20T19:05:09.874Z,13.23
2023-05-20T19:07:37.649Z,10.57
2023-05-20T19:10:05.485Z,10.80
2023-05-20T19:12:32.804Z,17.95
2023-05-20T19:15:00.382Z,14.13
2023-05-20T19:17:27.560Z,15.35
2023-05-20T19:19:54.732Z,9.40
2023-05-20T19:22:21.789Z,11.68
2023-05-20T19:24:48.758Z,10.95
2023-05-20T19:27:15.757Z,16.48
2023-05-20T19:29:43.193Z,15.48
2023-05-20T19:32:10.044Z,9.30
2023-05-20T19:34:37.066Z,7.55
2023-05-20T19:37:04.784Z,10.80
2023-05-20T19:39:31.675Z,14.73
2023-05-20T19:41:58.698Z,8.02
2023-05-20T19:44:25.799Z,12.57
2023-05-20T19:46:53.994Z,9.25
2023-05-20T19:49:21.118Z,10.75
2023-05-20T19:51:48.387Z,13.20
2023-05-20T19:54:15.540Z,15.20
2023-05-20T19:56:42.593Z,10.43
2023-05-20T19:59:09.557Z,8.48
2023-05-20T20:01:37.829Z,10.75
2023-05-20T20:04:05.033Z,10.35
2023-05-20T20:06:32.558Z,12.32
2023-05-20T20:08:59.623Z,10.05
2023-05-20T20:11:27.359Z,14.65
2023-05-20T20:13:54.437Z,9.25
2023-05-20T20:16:21.524Z,11.70
2023-05-20T20:18:48.980Z,15.45
2023-05-20T20:21:15.948Z,10.48
2023-05-20T20:23:43.527Z,10.25
2023-05-20T20:26:13.597Z,11.73
2023-05-20T20:28:40.642Z,11.73
2023-05-20T20:31:07.567Z,15.57
2023-05-20T20:33:34.460Z,15.55
2023-05-20T20:36:02.559Z,9.55
2023-05-20T20:38:29.765Z,12.73
2023-05-20T20:40:59.489Z,11.00
2023-05-20T20:43:28.860Z,10.60
2023-05-20T20:45:56.654Z,11.48
2023-05-20T20:48:27.405Z,9.63
2023-05-20T20:50:54.903Z,28.63
2023-05-20T20:53:21.911Z,12.25
2023-05-20T20:55:51.189Z,11.55
2023-05-20T20:58:18.224Z,15.75
2023-05-20T21:00:45.817Z,13.85
2023-05-20T21:03:13.488Z,9.70
2023-05-20T21:05:40.782Z,10.57
2023-05-20T21:08:08.596Z,12.50
2023-05-20T21:10:36.033Z,11.98
2023-05-20T21:13:02.893Z,15.63
2023-05-20T21:15:29.837Z,14.98
2023-05-20T21:17:58.556Z,17.33
2023-05-20T21:20:25.683Z,18.30
2023-05-20T21:22:52.732Z,10.90
2023-05-20T21:25:19.898Z,12.48
2023-05-20T21:27:47.176Z,8.90
2023-05-20T21:30:15.913Z,12.18
2023-05-20T21:32:43.153Z,12.73
2023-05-20T21:35:11.159Z,16.15
2023-05-20T21:37:38.055Z,8.05
2023-05-20T21:40:05.725Z,11.90
2023-05-20T21:42:32.782Z,14.73
2023-05-20T21:44:59.692Z,10.20
2023-05-20T21:47:26.639Z,10.40
2023-05-20T21:49:53.682Z,10.35
2023-05-20T21:52:20.826Z,9.25
2023-05-20T21:54:47.639Z,14.68
2023-05-20T21:57:15.451Z,11.05
2023-05-20T21:59:43.205Z,14.13
2023-05-20T22:02:10.514Z,12.60
2023-05-20T22:04:37.562Z,10.05
2023-05-20T22:07:04.899Z,12.93
2023-05-20T22:09:35.437Z,16.08
2023-05-20T22:12:03.743Z,11.48
2023-05-20T22:14:30.791Z,13.13
2023-05-20T22:16:58.630Z,13.43
2023-05-20T22:19:26.930Z,12.60
2023-05-20T22:21:53.878Z,11.38
2023-05-20T22:24:20.713Z,14.18
2023-05-20T22:26:47.685Z,13.38
2023-05-20T22:29:14.611Z,11.65
2023-05-20T22:31:41.638Z,12.07
2023-05-20T22:34:09.771Z,15.50
2023-05-20T22:36:37.493Z,15.18
2023-05-20T22:39:04.940Z,9.52
2023-05-20T22:41:32.216Z,8.35
2023-05-20T22:43:59.184Z,12.77
2023-05-20T22:46:26.310Z,11.30
2023-05-20T22:48:54.140Z,12.45
2023-05-20T22:51:21.960Z,8.73
2023-05-20T22:53:49.397Z,10.85
2023-05-20T22:56:17.102Z,8.38
2023-05-20T22:58:45.863Z,11.38
2023-05-20T23:01:13.385Z,14.30
2023-05-20T23:03:40.696Z,11.27
2023-05-20T23:06:07.968Z,17.70
2023-05-20T23:08:34.905Z,15.63
2023-05-20T23:11:01.996Z,12.32
2023-05-20T23:13:29.034Z,11.80
2023-05-20T23:15:56.184Z,12.80
2023-05-20T23:18:24.906Z,10.27
2023-05-20T23:20:51.971Z,11.07
2023-05-20T23:23:27.674Z,9.95
2023-05-20T23:25:58.059Z,10.35
2023-05-20T23:28:25.515Z,8.73
2023-05-20T23:30:52.445Z,11.27
2023-05-20T23:33:24.451Z,14.27
2023-05-20T23:35:52.891Z,11.10
2023-05-20T23:38:19.963Z,10.90
2023-05-20T23:40:47.439Z,9.60
2023-05-20T23:43:14.532Z,11.30
2023-05-20T23:45:41.413Z,12.80
2023-05-20T23:48:13.209Z,13.60
2023-05-20T23:50:40.751Z,10.00
2023-05-20T23:53:07.895Z,12.20
2023-05-20T23:55:35.468Z,13.43
2023-05-20T23:58:02.950Z,10.70
